Mechanicville, NY (12118)

2:41 PM EST on November 28, 2014 (GMT -0500)
Fairway Meadows | Change Station
CLOSE
Current Station
Personal Weather Station
Location: Mechanicville, NY
Elevation: 300 ft
Nearby Weather Stations

Elev 300 ft 42.91 °N, 73.72 °W | Updated 6 minutes ago

Overcast
Overcast
28.8 °F
Feels Like 21 °F
N
7.8
Wind Variable Wind from West

Today
High -- | Low -- °F
--% Chance of Precip.
Yesterday
High -- | Low -- °F
Precip. -- in
7:02 AM 4:22 PM
Waxing Crescent, 43% visible
Pressure 30.13 in
Visibility 10.0 miles
Clouds Mostly Cloudy 3400 ft
Overcast 4300 ft
Windchill 21 °F
Dew Point 21 °F
Humidity 73%
Rainfall 0.00 in
Snow Depth Not available.
UV 0 out of 12
Pollen .10 out of 12
Air Quality Not available.
Flu Activity Not available.
METAR KSCH 281848Z 30011G19KT 10SM BKN034 OVC043 M02/M07 A3013

More Conditions Fewer Conditions

Pressure 30.13 in
Visibility 10.0 miles
Clouds Mostly Cloudy 3400 ft
Overcast 4300 ft
Windchill 21 °F
Dew Point 21 °F
Humidity 73%
Rainfall 0.00 in
Snow Depth Not available.
UV 0 out of 12
Pollen .10 out of 12
Air Quality Not available.
Flu Activity Not available.
METAR KSCH 281848Z 30011G19KT 10SM BKN034 OVC043 M02/M07 A3013

More Conditions Fewer Conditions

10-Day Weather Forecast

Almanac

Astronomy

Nov. 28, 2014 Rise Set
Actual Time
Civil Twilight
Nautical Twilight
Astronomical Twilight
Moon
Length of Visible Light
Length of Day
Tomorrow will be .
, % of the Moon is Illuminated

Today's Extremes

State Highs State Lows

Community

WunderPhotos

Upload Photos

1,774,271 photos uploaded!

WunderBlogs® & News

Nearby

Air Quality

  Air Quality AQ Index Pollutant
Not available.

Snow Depth

Station Depth Elevation

Earthquake Activity

City Distance Mag. Time & Date
Minimum magnitude displayed is 2.5.

Coastal Water Temperatures

Place Temperature

Nearby Weather Stations